createdAt,value
2018-05-16T00:10:56.283Z,99.99
2018-05-16T00:11:56.242Z,99.99
2018-05-16T00:12:56.232Z,99.99
2018-05-16T00:13:56.213Z,99.99
2018-05-16T00:14:56.194Z,99.99
2018-05-16T00:15:56.223Z,99.99
2018-05-16T00:16:56.188Z,99.99
2018-05-16T00:17:56.209Z,99.99
2018-05-16T00:46:35.159Z,99.99
2018-05-16T00:47:35.168Z,99.99
2018-05-16T00:48:35.149Z,99.99
2018-05-16T00:49:35.130Z,99.99
2018-05-16T00:50:35.103Z,99.99
2018-05-16T00:51:35.101Z,99.99
2018-05-16T00:57:11.262Z,99.99
2018-05-16T00:58:11.225Z,99.99
2018-05-16T00:59:11.213Z,99.99
2018-05-16T01:00:11.193Z,99.99
2018-05-16T01:01:44.047Z,99.99
2018-05-16T01:49:52.064Z,99.99
2018-05-16T01:50:45.417Z,99.99
2018-05-16T01:51:45.399Z,99.99
2018-05-16T01:52:45.411Z,99.99
2018-05-16T01:53:45.401Z,99.99
2018-05-16T01:54:45.395Z,99.99
2018-05-16T01:55:45.359Z,99.99
2018-05-16T01:56:45.344Z,99.99
2018-05-16T01:57:45.322Z,99.99
2018-05-16T01:58:45.329Z,99.99
2018-05-16T01:59:45.324Z,99.99
2018-05-16T02:00:45.282Z,99.99
2018-05-16T02:09:25.552Z,99.99
2018-05-16T02:10:25.514Z,99.99
2018-05-16T02:11:25.502Z,99.99
2018-05-16T02:12:25.492Z,99.99
2018-05-16T02:13:25.473Z,99.99
2018-05-16T02:14:25.466Z,99.99
2018-05-16T02:15:25.434Z,99.99
2018-05-16T02:16:25.418Z,99.99
2018-05-16T02:17:25.437Z,99.99
2018-05-16T02:18:25.430Z,99.99
2018-05-16T03:23:51.838Z,99.99
2018-05-16T03:24:51.812Z,99.99
2018-05-16T03:25:51.793Z,99.99
2018-05-16T03:26:51.777Z,99.99
2018-05-16T03:27:51.758Z,99.99
2018-05-16T03:28:51.742Z,99.99
2018-05-16T03:29:51.726Z,99.99
2018-05-16T03:30:51.755Z,99.99
2018-05-16T03:31:51.736Z,99.99
2018-05-16T03:32:51.713Z,99.99
2018-05-16T03:33:51.697Z,99.99
2018-05-16T03:34:51.774Z,99.99
2018-05-16T03:35:51.653Z,99.99
2018-05-16T03:36:51.657Z,99.99
2018-05-16T03:37:51.643Z,99.99
2018-05-16T03:38:51.608Z,99.99
2018-05-16T03:39:51.595Z,99.99
2018-05-16T03:40:51.579Z,99.99
2018-05-16T03:41:51.601Z,99.99
2018-05-16T03:42:51.561Z,99.99
2018-05-16T03:43:51.522Z,99.99
2018-05-16T03:44:51.522Z,99.99
2018-05-16T03:45:51.530Z,99.99
2018-05-16T03:46:51.493Z,99.99
2018-05-16T03:47:51.484Z,99.99
2018-05-16T03:48:51.461Z,99.99
2018-05-16T03:49:51.436Z,99.99
2018-05-16T03:50:51.417Z,99.99
2018-05-16T03:51:51.429Z,99.99
2018-05-16T03:52:51.363Z,99.99
2018-05-16T03:53:51.344Z,99.99
2018-05-16T03:54:51.334Z,99.99
2018-05-16T03:55:51.315Z,99.99
2018-05-16T03:56:51.302Z,99.99
2018-05-16T03:57:51.290Z,99.99
2018-05-16T03:58:51.264Z,99.99
2018-05-16T03:59:51.261Z,99.99
2018-05-16T04:00:51.242Z,99.99
2018-05-16T04:01:51.225Z,99.99
2018-05-16T04:02:51.206Z,99.99
2018-05-16T04:03:51.186Z,99.99
2018-05-16T04:04:51.169Z,99.99
2018-05-16T04:05:51.160Z,99.99
2018-05-16T04:06:51.143Z,99.99
2018-05-16T04:07:51.125Z,99.99
2018-05-16T04:08:51.109Z,99.99
2018-05-16T04:09:51.093Z,99.99
2018-05-16T04:10:51.077Z,99.99
2018-05-16T04:11:51.064Z,99.99
2018-05-16T04:12:51.056Z,99.99
2018-05-16T04:13:51.030Z,99.99
2018-05-16T04:14:51.014Z,99.99
2018-05-16T04:15:51.007Z,99.99
2018-05-16T04:16:50.988Z,99.99
2018-05-16T04:17:50.970Z,99.99
2018-05-16T04:18:50.974Z,99.99
2018-05-16T04:19:50.934Z,99.99
2018-05-16T04:20:51.002Z,99.99
2018-05-16T04:21:50.912Z,99.99
2018-05-16T04:22:50.896Z,99.99
2018-05-16T04:23:50.873Z,99.99
2018-05-16T04:24:50.864Z,99.99
2018-05-16T04:25:50.848Z,99.99
2018-05-16T04:26:50.829Z,99.99
2018-05-16T04:27:50.809Z,99.99
2018-05-16T04:28:50.851Z,99.99
2018-05-16T04:29:50.787Z,99.99
2018-05-16T04:30:50.784Z,99.99
2018-05-16T04:31:50.748Z,99.99
2018-05-16T04:32:50.732Z,99.99
2018-05-16T04:33:50.716Z,99.99
2018-05-16T04:34:50.706Z,99.99
2018-05-16T04:35:50.690Z,99.99
2018-05-16T04:36:50.671Z,99.99
2018-05-16T04:37:50.661Z,99.99
2018-05-16T04:38:50.642Z,99.99
2018-05-16T04:39:50.630Z,99.99
2018-05-16T04:40:50.613Z,99.99
2018-05-16T04:41:50.606Z,99.99
2018-05-16T04:42:50.659Z,99.99
2018-05-16T04:43:50.568Z,99.99
2018-05-16T04:44:50.545Z,99.99
2018-05-16T04:45:50.529Z,99.99
2018-05-16T04:46:50.516Z,99.99
2018-05-16T04:47:50.506Z,99.99
2018-05-16T04:48:50.490Z,99.99
2018-05-16T04:49:50.471Z,99.99
2018-05-16T04:50:50.452Z,99.99
2018-05-16T04:51:50.436Z,99.99
2018-05-16T04:52:50.475Z,99.99
2018-05-16T04:53:50.411Z,99.99
2018-05-16T04:54:50.391Z,99.99
2018-05-16T04:55:50.385Z,99.99
2018-05-16T04:56:50.365Z,99.99
2018-05-16T04:57:50.349Z,99.99
2018-05-16T04:58:50.327Z,99.99
2018-05-16T04:59:50.314Z,99.99
2018-05-16T05:00:50.305Z,99.99
2018-05-16T05:01:50.285Z,99.99
2018-05-16T05:02:50.269Z,99.99
2018-05-16T05:03:50.257Z,99.99
2018-05-16T05:04:50.241Z,99.99
2018-05-16T05:05:50.218Z,99.99
2018-05-16T05:06:50.212Z,99.99
2018-05-16T05:07:50.196Z,99.99
2018-05-16T05:08:50.274Z,99.99
2018-05-16T05:09:50.182Z,99.99
2018-05-16T05:10:50.163Z,99.99
2018-05-16T05:11:50.226Z,99.99
2018-05-16T05:12:50.116Z,99.99
2018-05-16T05:13:50.102Z,99.99
2018-05-16T05:14:50.077Z,99.99
2018-05-16T05:15:50.074Z,99.99
2018-05-16T05:16:50.052Z,99.99
2018-05-16T05:17:50.031Z,99.99
2018-05-16T05:18:50.082Z,99.99
2018-05-16T05:19:50.014Z,99.99
2018-05-16T05:20:49.991Z,99.99
2018-05-16T05:21:49.974Z,99.99
2018-05-16T05:22:49.970Z,99.99
2018-05-16T05:23:49.939Z,99.99
2018-05-16T05:24:49.920Z,99.99
2018-05-16T05:25:49.906Z,99.99
2018-05-16T05:26:49.907Z,99.99
2018-05-16T05:27:49.881Z,99.99
2018-05-16T05:28:49.881Z,99.99
2018-05-16T05:29:49.846Z,99.99
2018-05-16T05:30:49.830Z,99.99
2018-05-16T05:31:49.814Z,99.99
2018-05-16T05:32:49.857Z,99.99
2018-05-16T05:33:49.781Z,99.99
2018-05-16T05:34:49.765Z,99.99
2018-05-16T05:35:49.758Z,99.99
2018-05-16T05:36:49.768Z,99.99
2018-05-16T05:37:49.720Z,99.99
2018-05-16T05:38:49.704Z,99.99
2018-05-16T05:39:49.688Z,99.99
2018-05-16T05:40:49.672Z,99.99
2018-05-16T05:41:49.663Z,99.99
2018-05-16T05:42:49.653Z,99.99
2018-05-16T05:43:49.627Z,99.99
2018-05-16T05:44:49.613Z,99.99
2018-05-16T05:45:49.598Z,99.99
2018-05-16T05:46:49.588Z,99.99
2018-05-16T05:47:49.573Z,99.99
2018-05-16T05:48:49.550Z,99.99
2018-05-16T05:49:49.541Z,99.99
2018-05-16T05:50:49.521Z,99.99
2018-05-16T05:51:49.512Z,99.99
2018-05-16T05:52:49.496Z,99.99
2018-05-16T05:53:49.473Z,99.99
2018-05-16T05:54:49.463Z,99.99
2018-05-16T05:55:49.448Z,99.99
2018-05-16T05:56:49.435Z,99.99
2018-05-16T05:57:49.413Z,99.99
2018-05-16T05:58:49.407Z,99.99
2018-05-16T05:59:49.384Z,99.99
2018-05-16T06:00:49.376Z,99.99
2018-05-16T06:01:49.356Z,99.99
2018-05-16T06:02:49.343Z,99.99
2018-05-16T06:03:49.329Z,99.99
2018-05-16T06:04:49.310Z,99.99
2018-05-16T06:05:49.297Z,99.99
2018-05-16T06:06:49.303Z,99.99
2018-05-16T06:07:49.269Z,99.99
2018-05-16T06:08:49.246Z,99.99
2018-05-16T06:09:49.237Z,99.99
2018-05-16T06:10:49.221Z,99.99
2018-05-16T06:11:49.202Z,99.99
2018-05-16T06:12:49.222Z,99.99
2018-05-16T06:13:49.174Z,99.99
2018-05-16T06:14:49.162Z,99.99
2018-05-16T06:15:49.140Z,99.99
2018-05-16T06:16:49.123Z,99.99
2018-05-16T06:17:49.107Z,99.99
2018-05-16T06:18:49.094Z,99.99
2018-05-16T06:19:49.084Z,99.99
2018-05-16T06:20:49.062Z,99.99
2018-05-16T06:21:49.052Z,99.99
2018-05-16T06:22:49.034Z,99.99
2018-05-16T06:23:49.053Z,99.99
2018-05-16T06:24:49.001Z,99.99
2018-05-16T06:25:48.988Z,99.99
2018-05-16T06:26:48.973Z,99.99
2018-05-16T06:27:48.967Z,99.99
2018-05-16T06:28:48.954Z,99.99
2018-05-16T06:29:48.925Z,99.99
2018-05-16T06:30:48.909Z,99.99
2018-05-16T06:31:48.896Z,99.99
2018-05-16T06:32:48.962Z,99.99
2018-05-16T06:33:48.892Z,99.99
2018-05-16T06:34:48.851Z,99.99
2018-05-16T06:35:48.835Z,99.99
2018-05-16T06:36:48.819Z,99.99
2018-05-16T06:37:48.819Z,99.99
2018-05-16T06:38:48.788Z,99.99
2018-05-16T06:39:48.787Z,99.99
2018-05-16T06:40:48.764Z,99.99
2018-05-16T06:41:48.761Z,99.99
2018-05-16T06:42:48.729Z,99.99
2018-05-16T06:43:48.717Z,99.99
2018-05-16T06:44:48.722Z,99.99
2018-05-16T06:45:48.724Z,99.99
2018-05-16T06:46:48.685Z,99.99
2018-05-16T06:47:48.661Z,99.99
2018-05-16T06:48:48.645Z,99.99
2018-05-16T06:49:48.629Z,99.99
2018-05-16T06:50:48.616Z,99.99
2018-05-16T06:51:48.601Z,99.99
2018-05-16T06:52:48.594Z,99.99
2018-05-16T06:53:48.573Z,99.99
2018-05-16T06:54:48.560Z,99.99
2018-05-16T06:55:48.543Z,99.99
2018-05-16T06:56:48.531Z,99.99
2018-05-16T06:57:48.525Z,99.99
2018-05-16T06:58:48.509Z,99.99
2018-05-16T06:59:48.489Z,99.99
2018-05-16T07:00:48.477Z,99.99
2018-05-16T07:01:48.480Z,99.99
2018-05-16T07:02:48.460Z,99.99
2018-05-16T07:03:48.439Z,99.99
2018-05-16T07:04:48.432Z,99.99
2018-05-16T07:05:48.417Z,99.99
2018-05-16T07:06:48.403Z,99.99
2018-05-16T07:07:48.394Z,99.99
2018-05-16T07:08:48.373Z,99.99
2018-05-16T07:09:48.364Z,99.99
2018-05-16T07:10:48.345Z,99.99
2018-05-16T07:11:48.332Z,99.99
2018-05-16T07:12:48.322Z,99.99
2018-05-16T07:13:48.310Z,99.99
2018-05-16T07:14:48.300Z,99.99
2018-05-16T07:15:48.287Z,99.99
2018-05-16T07:16:48.271Z,99.99
2018-05-16T07:17:48.258Z,99.99
2018-05-16T07:18:48.245Z,99.99
2018-05-16T07:19:48.242Z,99.99
2018-05-16T07:20:48.223Z,99.99
2018-05-16T07:21:48.210Z,99.99
2018-05-16T07:22:48.236Z,99.99
2018-05-16T07:23:48.188Z,99.99
2018-05-16T07:24:48.175Z,99.99
2018-05-16T07:25:48.167Z,99.99
2018-05-16T07:26:48.145Z,99.99
2018-05-16T07:27:48.152Z,99.99
2018-05-16T07:28:48.123Z,99.99
2018-05-16T07:29:48.114Z,99.99
2018-05-16T07:30:48.111Z,99.99
2018-05-16T07:31:48.089Z,99.99
2018-05-16T07:32:48.082Z,99.99
2018-05-16T07:33:48.065Z,99.99
2018-05-16T07:34:48.052Z,99.99
2018-05-16T07:35:48.053Z,99.99
2018-05-16T07:36:48.067Z,99.99
2018-05-16T07:37:48.017Z,99.99
2018-05-16T07:38:48.014Z,99.99
2018-05-16T07:39:47.998Z,99.99
2018-05-16T07:40:47.991Z,99.99
2018-05-16T07:41:47.975Z,99.99
2018-05-16T07:42:47.963Z,99.99
2018-05-16T07:43:47.960Z,99.99
2018-05-16T07:44:47.940Z,99.99
2018-05-16T07:45:47.934Z,99.99
2018-05-16T07:46:47.918Z,99.99
2018-05-16T07:47:47.905Z,99.99
2018-05-16T07:48:47.895Z,99.99
2018-05-16T07:49:47.889Z,99.99
2018-05-16T07:50:47.881Z,99.99
2018-05-16T07:51:47.867Z,99.99
2018-05-16T07:52:47.860Z,99.99
2018-05-16T07:53:47.838Z,99.99
2018-05-16T07:54:47.829Z,99.99
2018-05-16T07:55:47.822Z,99.99
2018-05-16T07:56:47.806Z,99.99
2018-05-16T07:57:47.793Z,99.99
2018-05-16T07:58:47.786Z,99.99
2018-05-16T07:59:47.776Z,99.99
2018-05-16T08:00:47.771Z,99.99
2018-05-16T08:01:47.757Z,99.99
2018-05-16T08:02:47.748Z,99.99
2018-05-16T08:03:47.739Z,99.99
2018-05-16T08:04:47.729Z,99.99
2018-05-16T08:05:47.713Z,99.99
2018-05-16T08:06:47.700Z,99.99
2018-05-16T08:07:47.697Z,99.99
2018-05-16T08:08:47.687Z,99.99
2018-05-16T08:09:47.671Z,99.99
2018-05-16T08:10:47.665Z,99.99
2018-05-16T08:11:47.650Z,99.99
2018-05-16T08:12:47.636Z,99.99
2018-05-16T08:13:47.632Z,99.99
2018-05-16T08:14:47.623Z,99.99
2018-05-16T08:15:47.612Z,99.99
2018-05-16T08:16:47.604Z,99.99
2018-05-16T08:17:47.585Z,99.99
2018-05-16T08:18:47.578Z,99.99
2018-05-16T08:19:47.571Z,99.99
2018-05-16T08:20:47.554Z,99.99
2018-05-16T08:21:47.591Z,99.99
2018-05-16T08:22:47.530Z,99.99
2018-05-16T08:23:47.520Z,99.99
2018-05-16T08:24:47.507Z,99.99
2018-05-16T08:25:47.504Z,99.99
2018-05-16T08:26:47.482Z,99.99
2018-05-16T08:27:47.478Z,99.99
2018-05-16T08:28:47.463Z,99.99
2018-05-16T08:29:47.453Z,99.99
2018-05-16T08:30:47.437Z,99.99
2018-05-16T08:31:47.424Z,99.99
2018-05-16T08:32:47.415Z,99.99
2018-05-16T08:33:47.392Z,99.99
2018-05-16T08:34:47.396Z,99.99
2018-05-16T08:35:47.372Z,99.99
2018-05-16T08:36:47.375Z,99.99
2018-05-16T08:37:47.349Z,99.99
2018-05-16T08:38:47.333Z,99.99
2018-05-16T08:39:47.321Z,99.99
2018-05-16T08:40:47.311Z,99.99
2018-05-16T08:41:47.301Z,99.99
2018-05-16T08:42:47.288Z,99.99
2018-05-16T08:43:47.273Z,99.99
2018-05-16T08:44:47.263Z,99.99
2018-05-16T08:45:47.250Z,99.99
2018-05-16T08:46:47.234Z,99.99
2018-05-16T08:47:47.222Z,99.99
2018-05-16T08:48:47.219Z,99.99
2018-05-16T08:49:47.952Z,99.99
2018-05-16T08:50:47.190Z,99.99
2018-05-16T08:51:47.171Z,99.99
2018-05-16T08:52:47.161Z,99.99
2018-05-16T08:53:47.152Z,99.99
2018-05-16T08:54:47.132Z,99.99
2018-05-16T08:55:47.123Z,99.99
2018-05-16T08:56:47.110Z,99.99
2018-05-16T08:57:47.102Z,99.99
2018-05-16T08:58:47.088Z,99.99
2018-05-16T08:59:47.085Z,99.99
2018-05-16T09:00:47.062Z,99.99
2018-05-16T09:01:47.052Z,99.99
2018-05-16T09:02:47.036Z,99.99
2018-05-16T09:03:47.044Z,99.99
2018-05-16T09:04:47.014Z,99.99
2018-05-16T09:05:47.001Z,99.99
2018-05-16T09:06:46.995Z,99.99
2018-05-16T09:07:46.976Z,99.99
2018-05-16T09:08:46.966Z,99.99
2018-05-16T09:09:46.953Z,99.99
2018-05-16T09:10:46.947Z,99.99
2018-05-16T09:11:46.947Z,99.99
2018-05-16T09:12:46.924Z,99.99
2018-05-16T09:13:46.915Z,99.99
2018-05-16T09:14:46.902Z,99.99
2018-05-16T09:15:46.892Z,99.99
2018-05-16T09:16:46.877Z,99.99
2018-05-16T09:17:46.873Z,99.99
2018-05-16T09:18:46.861Z,99.99
2018-05-16T09:19:46.851Z,99.99
2018-05-16T09:20:46.842Z,99.99
2018-05-16T09:21:46.823Z,99.99
2018-05-16T09:22:46.816Z,99.99
2018-05-16T09:23:46.806Z,99.99
2018-05-16T09:24:46.796Z,99.99
2018-05-16T09:25:46.784Z,99.99
2018-05-16T09:26:46.771Z,99.99
2018-05-16T09:27:46.755Z,99.99
2018-05-16T09:28:46.748Z,99.99
2018-05-16T09:29:46.733Z,99.99
2018-05-16T09:30:46.727Z,99.99
2018-05-16T09:31:46.715Z,99.99
2018-05-16T09:32:46.701Z,99.99
2018-05-16T09:33:46.753Z,99.99
2018-05-16T09:34:46.682Z,99.99
2018-05-16T09:35:46.666Z,99.99
2018-05-16T09:36:46.666Z,99.99
2018-05-16T09:37:46.644Z,99.99
2018-05-16T09:38:46.638Z,99.99
2018-05-16T09:39:46.628Z,99.99
2018-05-16T09:40:46.609Z,99.99
2018-05-16T09:41:46.602Z,99.99
2018-05-16T09:42:46.587Z,99.99
2018-05-16T09:43:46.581Z,99.99
2018-05-16T09:44:46.562Z,99.99
2018-05-16T09:45:46.632Z,99.99
2018-05-16T09:46:46.539Z,99.99
2018-05-16T09:47:46.533Z,99.99
2018-05-16T09:48:46.529Z,99.99
2018-05-16T09:49:46.540Z,99.99
2018-05-16T09:50:46.494Z,99.99
2018-05-16T09:51:46.491Z,99.99
2018-05-16T09:52:46.472Z,99.99
2018-05-16T09:53:46.459Z,99.99
2018-05-16T09:54:46.450Z,99.99
2018-05-16T09:55:46.433Z,99.99
2018-05-16T09:56:46.432Z,99.99
2018-05-16T09:57:46.415Z,99.99
2018-05-16T09:58:46.408Z,99.99
2018-05-16T09:59:46.395Z,99.99
2018-05-16T10:00:46.381Z,99.99
2018-05-16T10:01:46.368Z,99.99
2018-05-16T10:02:46.361Z,99.99
2018-05-16T10:03:46.356Z,99.99
2018-05-16T10:04:46.336Z,99.99
2018-05-16T10:05:46.327Z,99.99
2018-05-16T10:06:46.324Z,99.99
2018-05-16T10:07:46.315Z,99.73
2018-05-16T10:08:46.302Z,99.99
2018-05-16T10:09:46.404Z,98.10
2018-05-16T10:10:46.279Z,98.62
2018-05-16T10:11:46.274Z,99.58
2018-05-16T10:12:46.261Z,97.95
2018-05-16T10:13:46.245Z,99.63
2018-05-16T10:14:46.234Z,93.54
2018-05-16T10:15:46.228Z,93.82
2018-05-16T10:16:46.218Z,94.69
2018-05-16T10:17:46.212Z,97.14
2018-05-16T10:18:46.202Z,93.49
2018-05-16T10:19:46.192Z,91.86
2018-05-16T10:20:46.184Z,94.93
2018-05-16T10:21:46.171Z,94.74
2018-05-16T10:22:46.158Z,93.87
2018-05-16T10:23:46.225Z,92.82
2018-05-16T10:24:46.142Z,93.30
2018-05-16T10:25:46.130Z,97.33
2018-05-16T10:26:46.133Z,93.34
2018-05-16T10:27:46.117Z,92.10
2018-05-16T10:28:46.111Z,92.24
2018-05-16T10:29:46.100Z,89.83
2018-05-16T10:30:46.092Z,89.01
2018-05-16T10:31:46.080Z,88.24
2018-05-16T10:32:46.069Z,94.73
2018-05-16T10:33:46.066Z,92.08
2018-05-16T10:34:46.057Z,88.24
2018-05-16T10:35:46.053Z,86.02
2018-05-16T10:36:46.047Z,88.18
2018-05-16T10:37:46.034Z,85.16
2018-05-16T10:38:46.028Z,84.43
2018-05-16T10:39:46.028Z,83.28
2018-05-16T10:40:46.012Z,81.40
2018-05-16T10:41:46.009Z,82.32
2018-05-16T10:42:46.002Z,85.20
2018-05-16T10:43:45.998Z,84.53
2018-05-16T10:44:45.999Z,83.91
2018-05-16T10:45:45.982Z,86.79
2018-05-16T10:46:45.985Z,87.76
2018-05-16T10:47:45.982Z,87.08
2018-05-16T10:48:45.972Z,86.31
2018-05-16T10:49:45.963Z,84.73
2018-05-16T10:50:45.963Z,82.32
2018-05-16T10:51:45.960Z,83.92
2018-05-16T10:52:45.947Z,84.98
2018-05-16T10:53:45.949Z,86.04
2018-05-16T10:54:45.944Z,86.52
2018-05-16T10:55:45.931Z,90.07
2018-05-16T10:56:45.934Z,86.27
2018-05-16T10:57:45.928Z,87.71
2018-05-16T10:58:45.928Z,88.19
2018-05-16T10:59:45.909Z,82.98
2018-05-16T11:00:45.908Z,85.34
2018-05-16T11:01:45.899Z,79.66
2018-05-16T11:02:45.892Z,81.35
2018-05-16T11:03:45.889Z,84.10
2018-05-16T11:04:45.883Z,86.22
2018-05-16T11:05:45.880Z,85.69
2018-05-16T11:06:45.873Z,83.73
2018-05-16T11:07:45.871Z,83.11
2018-05-16T11:08:45.870Z,85.89
2018-05-16T11:09:45.860Z,85.61
2018-05-16T11:10:45.870Z,87.82
2018-05-16T11:11:45.849Z,87.96
2018-05-16T11:12:45.842Z,86.22
2018-05-16T11:13:45.844Z,82.27
2018-05-16T11:14:45.834Z,79.19
2018-05-16T11:15:45.829Z,82.98
2018-05-16T11:16:45.823Z,81.63
2018-05-16T11:17:45.822Z,79.10
2018-05-16T11:18:45.819Z,79.53
2018-05-16T11:19:45.815Z,79.82
2018-05-16T11:20:45.813Z,80.25
2018-05-16T11:21:45.810Z,80.25
2018-05-16T11:22:45.800Z,79.19
2018-05-16T11:23:45.794Z,84.05
2018-05-16T11:24:45.791Z,82.06
2018-05-16T11:25:45.796Z,78.83
2018-05-16T11:26:45.783Z,80.06
2018-05-16T11:27:45.791Z,77.50
2018-05-16T11:28:45.779Z,74.21
2018-05-16T11:29:45.773Z,77.84
2018-05-16T11:30:45.781Z,80.20
2018-05-16T11:31:45.779Z,78.21
2018-05-16T11:32:45.773Z,73.38
2018-05-16T11:33:45.773Z,74.87
2018-05-16T11:34:45.769Z,75.54
2018-05-16T11:35:45.770Z,69.56
2018-05-16T11:36:45.763Z,70.10
2018-05-16T11:37:45.774Z,70.68
2018-05-16T11:38:45.763Z,74.77
2018-05-16T11:39:45.766Z,70.78
2018-05-16T11:40:45.763Z,72.55
2018-05-16T11:41:45.763Z,68.94
2018-05-16T11:42:45.768Z,72.86
2018-05-16T11:43:45.770Z,70.16
2018-05-16T11:44:45.766Z,74.27
2018-05-16T11:45:45.766Z,75.40
2018-05-16T11:46:45.770Z,75.07
2018-05-16T11:47:45.769Z,75.13
2018-05-16T11:48:45.792Z,77.08
2018-05-16T11:49:45.766Z,82.37
2018-05-16T11:50:45.763Z,83.04
2018-05-16T11:51:45.764Z,83.04
2018-05-16T11:52:45.767Z,83.23
2018-05-16T11:53:45.763Z,80.06
2018-05-16T11:54:45.756Z,82.17
2018-05-16T11:55:45.753Z,80.54
2018-05-16T11:56:45.750Z,80.73
2018-05-16T11:57:45.747Z,80.87
2018-05-16T11:58:45.747Z,80.87
2018-05-16T11:59:45.738Z,77.63
2018-05-16T12:00:45.731Z,75.28
2018-05-16T12:01:45.728Z,76.34
2018-05-16T12:02:45.799Z,76.11
2018-05-16T12:03:45.725Z,77.17
2018-05-16T12:04:45.713Z,76.98
2018-05-16T12:05:45.709Z,75.05
2018-05-16T12:06:45.702Z,80.06
2018-05-16T12:07:45.699Z,80.83
2018-05-16T12:08:45.693Z,82.17
2018-05-16T12:09:45.696Z,82.32
2018-05-16T12:10:45.684Z,82.52
2018-05-16T12:11:45.677Z,83.48
2018-05-16T12:12:45.671Z,84.06
2018-05-16T12:13:45.664Z,81.07
2018-05-16T12:14:45.681Z,84.16
2018-05-16T12:15:45.654Z,82.32
2018-05-16T12:16:45.648Z,80.98
2018-05-16T12:17:45.648Z,82.61
2018-05-16T12:18:45.639Z,81.56
2018-05-16T12:19:45.629Z,81.94
2018-05-16T12:20:45.622Z,82.23
2018-05-16T12:21:45.689Z,84.06
2018-05-16T12:22:45.613Z,81.21
2018-05-16T12:23:45.600Z,79.58
2018-05-16T12:24:45.600Z,80.73
2018-05-16T12:25:45.593Z,81.98
2018-05-16T12:26:45.580Z,80.68
2018-05-16T12:27:45.570Z,80.96
2018-05-16T12:28:45.567Z,79.71
2018-05-16T12:29:45.561Z,75.86
2018-05-16T12:30:45.552Z,79.46
2018-05-16T12:31:45.549Z,77.96
2018-05-16T12:32:45.539Z,76.13
2018-05-16T12:33:45.540Z,71.60
2018-05-16T12:34:45.533Z,74.24
2018-05-16T12:35:45.530Z,75.37
2018-05-16T12:36:45.517Z,73.80
2018-05-16T12:37:45.516Z,72.56
2018-05-16T12:38:45.508Z,67.53
2018-05-16T12:39:45.511Z,67.85
2018-05-16T12:40:45.500Z,60.24
2018-05-16T12:41:45.497Z,63.21
2018-05-16T12:42:45.498Z,69.46
2018-05-16T12:43:45.498Z,65.14
2018-05-16T12:44:45.494Z,67.49
2018-05-16T12:45:45.491Z,68.43
2018-05-16T12:46:45.500Z,68.10
2018-05-16T12:47:45.497Z,65.34
2018-05-16T12:48:45.488Z,67.14
2018-05-16T12:49:45.495Z,68.65
2018-05-16T12:50:45.491Z,70.67
2018-05-16T12:51:45.482Z,71.92
2018-05-16T12:52:45.482Z,71.64
2018-05-16T12:53:45.478Z,68.04
2018-05-16T12:54:45.476Z,68.52
2018-05-16T12:55:45.548Z,69.83
2018-05-16T12:56:45.475Z,70.35
2018-05-16T12:57:45.468Z,71.98
2018-05-16T12:58:45.463Z,73.43
2018-05-16T12:59:45.459Z,72.85
2018-05-16T13:00:45.459Z,73.72
2018-05-16T13:01:45.454Z,73.43
2018-05-16T13:02:45.453Z,71.31
2018-05-16T13:03:45.440Z,74.40
2018-05-16T13:04:45.443Z,74.52
2018-05-16T13:05:45.432Z,72.77
2018-05-16T13:06:45.428Z,69.35
2018-05-16T13:07:45.431Z,70.36
2018-05-16T13:08:45.424Z,68.40
2018-05-16T13:09:45.425Z,71.97
2018-05-16T13:10:45.417Z,70.29
2018-05-16T13:11:45.409Z,68.71
2018-05-16T13:12:45.408Z,68.10
2018-05-16T13:13:45.408Z,69.45
2018-05-16T13:14:45.402Z,70.90
2018-05-16T13:15:45.396Z,71.92
2018-05-16T13:16:45.389Z,74.72
2018-05-16T13:17:45.467Z,73.47
2018-05-16T13:18:45.385Z,73.11
2018-05-16T13:19:45.384Z,72.09
2018-05-16T13:20:45.372Z,71.42
2018-05-16T13:21:45.376Z,69.42
2018-05-16T13:22:45.367Z,68.55
2018-05-16T13:23:45.369Z,69.52
2018-05-16T13:24:45.356Z,71.74
2018-05-16T13:25:45.353Z,65.30
2018-05-16T13:26:45.426Z,62.50
2018-05-16T13:27:45.353Z,64.79
2018-05-16T13:28:45.343Z,63.78
2018-05-16T13:29:45.350Z,59.88
2018-05-16T13:30:45.341Z,59.69
2018-05-16T13:31:45.348Z,60.97
2018-05-16T13:32:45.338Z,57.97
2018-05-16T13:33:45.341Z,59.16
2018-05-16T13:34:45.337Z,57.73
2018-05-16T13:35:45.341Z,58.08
2018-05-16T13:36:45.354Z,51.89
2018-05-16T13:37:45.341Z,50.92
2018-05-16T13:38:45.344Z,55.78
2018-05-16T13:39:45.344Z,54.07
2018-05-16T13:40:45.358Z,57.06
2018-05-16T13:41:45.356Z,55.47
2018-05-16T13:42:45.360Z,54.31
2018-05-16T13:43:45.357Z,51.76
2018-05-16T13:44:45.363Z,53.67
2018-05-16T13:45:45.366Z,59.16
2018-05-16T13:46:45.360Z,54.53
2018-05-16T13:47:45.366Z,54.36
2018-05-16T13:48:45.366Z,56.47
2018-05-16T13:49:45.370Z,59.61
2018-05-16T13:50:45.373Z,57.89
2018-05-16T13:51:45.385Z,52.19
2018-05-16T13:52:45.388Z,47.34
2018-05-16T13:53:45.382Z,54.10
2018-05-16T13:54:45.385Z,50.19
2018-05-16T13:55:45.398Z,50.79
2018-05-16T13:56:45.398Z,56.49
2018-05-16T13:57:45.400Z,58.42
2018-05-16T13:58:45.409Z,57.61
2018-05-16T13:59:45.405Z,53.95
2018-05-16T14:00:45.408Z,53.17
2018-05-16T14:01:45.414Z,55.64
2018-05-16T14:02:45.414Z,57.97
2018-05-16T14:03:45.421Z,55.42
2018-05-16T14:04:45.421Z,56.43
2018-05-16T14:05:45.430Z,59.72
2018-05-16T14:06:45.427Z,61.92
2018-05-16T14:07:45.430Z,61.92
2018-05-16T14:08:45.436Z,62.08
2018-05-16T14:09:45.436Z,61.47
2018-05-16T14:10:45.495Z,63.85
2018-05-16T14:11:45.441Z,63.66
2018-05-16T14:12:45.445Z,65.50
2018-05-16T14:13:45.434Z,64.89
2018-05-16T14:14:45.437Z,63.70
2018-05-16T14:15:45.430Z,65.34
2018-05-16T14:16:45.434Z,63.89
2018-05-16T14:17:45.427Z,66.66
2018-05-16T14:18:45.430Z,68.87
2018-05-16T14:19:45.427Z,70.45
2018-05-16T14:20:45.427Z,67.71
2018-05-16T14:21:45.427Z,66.66
2018-05-16T14:22:45.418Z,68.74
2018-05-16T14:23:45.509Z,70.15
2018-05-16T14:24:45.411Z,70.83
2018-05-16T14:25:45.411Z,71.79
2018-05-16T14:26:45.408Z,71.95
2018-05-16T14:27:45.408Z,71.85
2018-05-16T14:28:45.401Z,72.24
2018-05-16T14:29:45.395Z,72.91
2018-05-16T14:30:45.392Z,71.37
2018-05-16T14:31:45.392Z,70.56
2018-05-16T14:32:45.389Z,68.64
2018-05-16T14:33:45.382Z,71.81
2018-05-16T14:34:45.376Z,73.68
2018-05-16T14:35:45.375Z,72.79
2018-05-16T14:36:45.360Z,71.55
2018-05-16T14:37:45.359Z,70.75
2018-05-16T14:38:45.353Z,65.53
2018-05-16T14:39:45.350Z,59.88
2018-05-16T14:40:45.340Z,57.00
2018-05-16T14:41:45.337Z,57.22
2018-05-16T14:42:45.439Z,57.06
2018-05-16T14:43:45.331Z,55.60
2018-05-16T14:44:45.344Z,54.17
2018-05-16T14:45:45.328Z,51.89
2018-05-16T14:46:45.328Z,57.43
2018-05-16T14:47:45.328Z,60.85
2018-05-16T14:48:45.322Z,59.28
2018-05-16T14:49:45.321Z,65.43
2018-05-16T14:50:45.321Z,67.81
2018-05-16T14:51:45.318Z,67.30
2018-05-16T14:52:45.314Z,67.40
2018-05-16T14:53:45.310Z,68.04
2018-05-16T14:54:45.306Z,69.29
2018-05-16T14:55:45.306Z,71.50
2018-05-16T14:56:45.303Z,70.50
2018-05-16T14:57:45.302Z,69.64
2018-05-16T14:58:45.296Z,71.56
2018-05-16T14:59:45.293Z,72.91
2018-05-16T15:00:45.296Z,72.49
2018-05-16T15:01:45.297Z,71.91
2018-05-16T15:02:45.283Z,72.78
2018-05-16T15:03:45.277Z,72.33
2018-05-16T15:04:45.274Z,72.33
2018-05-16T15:05:45.267Z,73.10
2018-05-16T15:06:45.256Z,71.08
2018-05-16T15:07:45.254Z,72.43
2018-05-16T15:08:45.245Z,72.53
2018-05-16T15:09:45.242Z,71.85
2018-05-16T15:10:45.236Z,72.53
2018-05-16T15:11:45.229Z,69.83
2018-05-16T15:12:45.223Z,71.02
2018-05-16T15:13:45.223Z,70.15
2018-05-16T15:14:45.235Z,70.92
2018-05-16T15:15:45.200Z,68.04
2018-05-16T15:16:45.204Z,67.20
2018-05-16T15:17:45.197Z,65.72
2018-05-16T15:18:45.187Z,67.58
2018-05-16T15:19:45.188Z,66.88
2018-05-16T15:20:45.180Z,68.35
2018-05-16T15:21:45.174Z,66.91
2018-05-16T15:22:45.171Z,66.62
2018-05-16T15:23:45.155Z,67.58
2018-05-16T15:24:45.175Z,69.96
2018-05-16T15:25:45.151Z,72.08
2018-05-16T15:26:45.149Z,73.53
2018-05-16T15:27:45.142Z,72.63
2018-05-16T15:28:45.136Z,75.13
2018-05-16T15:29:45.126Z,74.93
2018-05-16T15:30:45.119Z,74.90
2018-05-16T15:31:45.113Z,74.90
2018-05-16T15:32:45.105Z,76.21
2018-05-16T15:33:45.097Z,75.44
2018-05-16T15:34:45.097Z,78.03